Sinimbu, Brazil
Current Conditions -  °F | °C
As of 3:35 PM on Thursday 30 Oct 2014 (Local Time) from SBSM Reporting Station
Broken Clouds Broken Clouds  
Wind Chill: 70°   Ceiling: 10000
Heat Index: 70°   Visibility: 6mi
Dew Point: 61°   Wind: 18mph
Humidity: 73%   Direction: 30°NNE
Pressure: 29.68"   Gusts: 31mph
Location:  29.54°S, 52.52°W
Report Text: SBSM 301735Z 03016G27KT 9999 FEW030 BKN100 21/16 Q1005
Loading
Personal Weather Stations






























Interactive Weather Map
Tropical Storm Tracking
New forecast layout! Learn more

10-Day Weather Forecast

Advertisements
Track Severe Weather on mobile